sensor_id;sensor_type;location;lat;lon;timestamp;temperature;humidity
66586;SHT30;53444;45.822;16.092;2023-06-01T00:00:11;17.39;91.48
66586;SHT30;53444;45.822;16.092;2023-06-01T00:02:39;17.34;91.67
66586;SHT30;53444;45.822;16.092;2023-06-01T00:05:06;17.31;92.11
66586;SHT30;53444;45.822;16.092;2023-06-01T00:07:35;17.28;92.20
66586;SHT30;53444;45.822;16.092;2023-06-01T00:10:01;17.34;92.10
66586;SHT30;53444;45.822;16.092;2023-06-01T00:12:28;17.31;92.27
66586;SHT30;53444;45.822;16.092;2023-06-01T00:14:55;17.28;92.45
66586;SHT30;53444;45.822;16.092;2023-06-01T00:17:23;17.32;92.11
66586;SHT30;53444;45.822;16.092;2023-06-01T00:19:49;17.32;92.16
66586;SHT30;53444;45.822;16.092;2023-06-01T00:22:18;17.28;92.40
66586;SHT30;53444;45.822;16.092;2023-06-01T00:24:46;17.14;93.01
66586;SHT30;53444;45.822;16.092;2023-06-01T00:27:13;17.07;93.48
66586;SHT30;53444;45.822;16.092;2023-06-01T00:29:39;17.10;93.53
66586;SHT30;53444;45.822;16.092;2023-06-01T00:32:07;17.10;93.70
66586;SHT30;53444;45.822;16.092;2023-06-01T00:34:33;17.14;93.56
66586;SHT30;53444;45.822;16.092;2023-06-01T00:37:00;17.03;94.74
66586;SHT30;53444;45.822;16.092;2023-06-01T00:39:26;16.85;95.54
66586;SHT30;53444;45.822;16.092;2023-06-01T00:41:54;16.76;95.68
66586;SHT30;53444;45.822;16.092;2023-06-01T00:44:21;16.77;95.76
66586;SHT30;53444;45.822;16.092;2023-06-01T00:46:49;16.83;95.51
66586;SHT30;53444;45.822;16.092;2023-06-01T00:49:16;16.84;95.47
66586;SHT30;53444;45.822;16.092;2023-06-01T00:51:43;16.83;95.41
66586;SHT30;53444;45.822;16.092;2023-06-01T00:54:10;16.85;94.95
66586;SHT30;53444;45.822;16.092;2023-06-01T00:56:37;16.91;94.77
66586;SHT30;53444;45.822;16.092;2023-06-01T00:59:05;16.90;94.80
66586;SHT30;53444;45.822;16.092;2023-06-01T01:01:32;16.84;94.99
66586;SHT30;53444;45.822;16.092;2023-06-01T01:03:58;16.77;95.20
66586;SHT30;53444;45.822;16.092;2023-06-01T01:06:44;16.57;95.31
66586;SHT30;53444;45.822;16.092;2023-06-01T01:09:23;16.53;95.90
66586;SHT30;53444;45.822;16.092;2023-06-01T01:11:58;16.43;96.46
66586;SHT30;53444;45.822;16.092;2023-06-01T01:14:31;16.46;96.26
66586;SHT30;53444;45.822;16.092;2023-06-01T01:17:03;16.42;96.67
66586;SHT30;53444;45.822;16.092;2023-06-01T01:19:48;16.28;97.28
66586;SHT30;53444;45.822;16.092;2023-06-01T01:22:28;16.30;97.30
66586;SHT30;53444;45.822;16.092;2023-06-01T01:25:20;16.40;97.05
66586;SHT30;53444;45.822;16.092;2023-06-01T01:27:59;16.29;97.66
66586;SHT30;53444;45.822;16.092;2023-06-01T01:30:31;16.33;97.62
66586;SHT30;53444;45.822;16.092;2023-06-01T01:32:59;16.30;97.76
66586;SHT30;53444;45.822;16.092;2023-06-01T01:35:28;16.36;97.63
66586;SHT30;53444;45.822;16.092;2023-06-01T01:37:55;16.32;97.73
66586;SHT30;53444;45.822;16.092;2023-06-01T01:40:22;16.36;97.40
66586;SHT30;53444;45.822;16.092;2023-06-01T01:42:50;16.39;97.28
66586;SHT30;53444;45.822;16.092;2023-06-01T01:45:17;16.50;97.06
66586;SHT30;53444;45.822;16.092;2023-06-01T01:47:51;16.46;97.25
66586;SHT30;53444;45.822;16.092;2023-06-01T01:50:21;16.56;96.99
66586;SHT30;53444;45.822;16.092;2023-06-01T01:52:51;16.66;96.68
66586;SHT30;53444;45.822;16.092;2023-06-01T01:55:20;16.70;96.32
66586;SHT30;53444;45.822;16.092;2023-06-01T01:57:50;16.70;96.69
66586;SHT30;53444;45.822;16.092;2023-06-01T02:00:17;16.70;96.67
66586;SHT30;53444;45.822;16.092;2023-06-01T02:02:45;16.77;96.47
66586;SHT30;53444;45.822;16.092;2023-06-01T02:05:13;16.74;96.38
66586;SHT30;53444;45.822;16.092;2023-06-01T02:07:39;16.73;96.15
66586;SHT30;53444;45.822;16.092;2023-06-01T02:10:07;16.70;96.19
66586;SHT30;53444;45.822;16.092;2023-06-01T02:12:33;16.59;96.73
66586;SHT30;53444;45.822;16.092;2023-06-01T02:15:00;16.46;97.16
66586;SHT30;53444;45.822;16.092;2023-06-01T02:17:27;16.36;97.13
66586;SHT30;53444;45.822;16.092;2023-06-01T02:19:53;16.12;98.06
66586;SHT30;53444;45.822;16.092;2023-06-01T02:22:21;16.08;98.14
66586;SHT30;53444;45.822;16.092;2023-06-01T02:24:48;16.18;97.63
66586;SHT30;53444;45.822;16.092;2023-06-01T02:27:15;15.96;98.18
66586;SHT30;53444;45.822;16.092;2023-06-01T02:29:41;15.91;98.42
66586;SHT30;53444;45.822;16.092;2023-06-01T02:32:08;15.88;98.60
66586;SHT30;53444;45.822;16.092;2023-06-01T02:34:35;16.05;98.09
66586;SHT30;53444;45.822;16.092;2023-06-01T02:37:02;16.08;97.75
66586;SHT30;53444;45.822;16.092;2023-06-01T02:39:31;15.81;98.33
66586;SHT30;53444;45.822;16.092;2023-06-01T02:41:57;15.79;98.58
66586;SHT30;53444;45.822;16.092;2023-06-01T02:44:24;15.82;98.57
66586;SHT30;53444;45.822;16.092;2023-06-01T02:46:51;15.91;98.26
66586;SHT30;53444;45.822;16.092;2023-06-01T02:49:17;16.01;97.75
66586;SHT30;53444;45.822;16.092;2023-06-01T02:51:44;16.06;97.47
66586;SHT30;53444;45.822;16.092;2023-06-01T02:54:10;16.09;97.31
66586;SHT30;53444;45.822;16.092;2023-06-01T02:56:38;16.16;97.06
66586;SHT30;53444;45.822;16.092;2023-06-01T02:59:05;16.18;97.02
66586;SHT30;53444;45.822;16.092;2023-06-01T03:01:31;16.19;96.84
66586;SHT30;53444;45.822;16.092;2023-06-01T03:04:00;16.08;97.67
66586;SHT30;53444;45.822;16.092;2023-06-01T03:06:29;16.12;97.33
66586;SHT30;53444;45.822;16.092;2023-06-01T03:08:57;16.15;97.13
66586;SHT30;53444;45.822;16.092;2023-06-01T03:11:23;16.16;97.03
66586;SHT30;53444;45.822;16.092;2023-06-01T03:13:51;16.19;96.83
66586;SHT30;53444;45.822;16.092;2023-06-01T03:16:18;16.19;96.74
66586;SHT30;53444;45.822;16.092;2023-06-01T03:18:44;16.16;96.78
66586;SHT30;53444;45.822;16.092;2023-06-01T03:21:11;16.12;96.60
66586;SHT30;53444;45.822;16.092;2023-06-01T03:23:37;16.16;96.40
66586;SHT30;53444;45.822;16.092;2023-06-01T03:26:09;16.16;96.30
66586;SHT30;53444;45.822;16.092;2023-06-01T03:28:35;16.08;96.82
66586;SHT30;53444;45.822;16.092;2023-06-01T03:31:03;16.08;96.66
66586;SHT30;53444;45.822;16.092;2023-06-01T03:33:30;16.02;96.83
66586;SHT30;53444;45.822;16.092;2023-06-01T03:35:56;16.12;96.52
66586;SHT30;53444;45.822;16.092;2023-06-01T03:38:23;16.12;96.48
66586;SHT30;53444;45.822;16.092;2023-06-01T03:40:49;16.10;96.65
66586;SHT30;53444;45.822;16.092;2023-06-01T03:43:16;16.12;96.48
66586;SHT30;53444;45.822;16.092;2023-06-01T03:45:43;16.10;96.36
66586;SHT30;53444;45.822;16.092;2023-06-01T03:48:11;16.13;96.32
66586;SHT30;53444;45.822;16.092;2023-06-01T03:50:37;16.13;96.33
66586;SHT30;53444;45.822;16.092;2023-06-01T03:53:04;16.12;96.34
66586;SHT30;53444;45.822;16.092;2023-06-01T03:55:30;16.08;96.52
66586;SHT30;53444;45.822;16.092;2023-06-01T03:57:58;16.10;96.34
66586;SHT30;53444;45.822;16.092;2023-06-01T04:00:25;16.13;96.24
66586;SHT30;53444;45.822;16.092;2023-06-01T04:02:54;16.13;96.44
66586;SHT30;53444;45.822;16.092;2023-06-01T04:05:24;16.18;96.45
66586;SHT30;53444;45.822;16.092;2023-06-01T04:07:53;16.20;96.29
66586;SHT30;53444;45.822;16.092;2023-06-01T04:10:20;16.20;96.20
66586;SHT30;53444;45.822;16.092;2023-06-01T04:12:48;16.18;96.37
66586;SHT30;53444;45.822;16.092;2023-06-01T04:15:16;16.12;96.20
66586;SHT30;53444;45.822;16.092;2023-06-01T04:17:43;16.06;96.39
66586;SHT30;53444;45.822;16.092;2023-06-01T04:20:11;15.95;96.60
66586;SHT30;53444;45.822;16.092;2023-06-01T04:22:40;15.94;96.67
66586;SHT30;53444;45.822;16.092;2023-06-01T04:25:09;16.05;96.37
66586;SHT30;53444;45.822;16.092;2023-06-01T04:27:37;16.12;96.11
66586;SHT30;53444;45.822;16.092;2023-06-01T04:30:05;16.13;96.29
66586;SHT30;53444;45.822;16.092;2023-06-01T04:32:33;16.20;96.13
66586;SHT30;53444;45.822;16.092;2023-06-01T04:35:00;16.08;96.45
66586;SHT30;53444;45.822;16.092;2023-06-01T04:37:31;16.04;96.63
66586;SHT30;53444;45.822;16.092;2023-06-01T04:40:00;16.01;96.62
66586;SHT30;53444;45.822;16.092;2023-06-01T04:42:31;15.88;97.29
66586;SHT30;53444;45.822;16.092;2023-06-01T04:44:58;15.85;97.28
66586;SHT30;53444;45.822;16.092;2023-06-01T04:47:25;15.84;97.38
66586;SHT30;53444;45.822;16.092;2023-06-01T04:49:53;15.92;97.34
66586;SHT30;53444;45.822;16.092;2023-06-01T04:52:19;15.67;97.23
66586;SHT30;53444;45.822;16.092;2023-06-01T04:54:46;15.61;97.75
66586;SHT30;53444;45.822;16.092;2023-06-01T04:57:14;15.51;98.31
66586;SHT30;53444;45.822;16.092;2023-06-01T04:59:41;15.62;98.37
66586;SHT30;53444;45.822;16.092;2023-06-01T05:02:08;15.68;98.17
66586;SHT30;53444;45.822;16.092;2023-06-01T05:04:36;15.75;97.95
66586;SHT30;53444;45.822;16.092;2023-06-01T05:07:03;15.64;97.78
66586;SHT30;53444;45.822;16.092;2023-06-01T05:09:30;15.74;97.99
66586;SHT30;53444;45.822;16.092;2023-06-01T05:11:56;15.79;97.96
66586;SHT30;53444;45.822;16.092;2023-06-01T05:14:24;15.91;97.87
66586;SHT30;53444;45.822;16.092;2023-06-01T05:16:51;15.92;97.72
66586;SHT30;53444;45.822;16.092;2023-06-01T05:19:17;15.77;97.64
66586;SHT30;53444;45.822;16.092;2023-06-01T05:21:44;15.88;97.56
66586;SHT30;53444;45.822;16.092;2023-06-01T05:24:12;15.89;97.52
66586;SHT30;53444;45.822;16.092;2023-06-01T05:26:39;15.95;97.51
66586;SHT30;53444;45.822;16.092;2023-06-01T05:29:05;16.02;97.54
66586;SHT30;53444;45.822;16.092;2023-06-01T05:31:33;16.16;97.40
66586;SHT30;53444;45.822;16.092;2023-06-01T05:34:01;16.28;97.38
66586;SHT30;53444;45.822;16.092;2023-06-01T05:36:27;16.34;97.33
66586;SHT30;53444;45.822;16.092;2023-06-01T05:38:54;16.42;97.37
66586;SHT30;53444;45.822;16.092;2023-06-01T05:41:21;16.56;96.96
66586;SHT30;53444;45.822;16.092;2023-06-01T05:43:47;16.69;96.68
66586;SHT30;53444;45.822;16.092;2023-06-01T05:46:14;16.71;96.53
66586;SHT30;53444;45.822;16.092;2023-06-01T05:48:41;16.88;96.06
66586;SHT30;53444;45.822;16.092;2023-06-01T05:51:08;16.97;95.80
66586;SHT30;53444;45.822;16.092;2023-06-01T05:53:35;17.12;95.42
66586;SHT30;53444;45.822;16.092;2023-06-01T05:56:01;17.22;95.53
66586;SHT30;53444;45.822;16.092;2023-06-01T05:58:29;17.27;95.09
66586;SHT30;53444;45.822;16.092;2023-06-01T06:00:55;17.34;95.36
66586;SHT30;53444;45.822;16.092;2023-06-01T06:03:22;17.38;95.12
66586;SHT30;53444;45.822;16.092;2023-06-01T06:05:50;17.46;95.24
66586;SHT30;53444;45.822;16.092;2023-06-01T06:08:17;17.48;94.95
66586;SHT30;53444;45.822;16.092;2023-06-01T06:10:44;17.49;95.38
66586;SHT30;53444;45.822;16.092;2023-06-01T06:13:10;17.62;94.80
66586;SHT30;53444;45.822;16.092;2023-06-01T06:15:37;17.63;94.65
66586;SHT30;53444;45.822;16.092;2023-06-01T06:18:04;17.68;94.65
66586;SHT30;53444;45.822;16.092;2023-06-01T06:20:31;17.70;94.91
66586;SHT30;53444;45.822;16.092;2023-06-01T06:22:59;17.61;95.35
66586;SHT30;53444;45.822;16.092;2023-06-01T06:25:25;17.61;95.10
66586;SHT30;53444;45.822;16.092;2023-06-01T06:27:52;17.69;94.77
66586;SHT30;53444;45.822;16.092;2023-06-01T06:30:18;17.82;94.83
66586;SHT30;53444;45.822;16.092;2023-06-01T06:32:45;17.89;94.15
66586;SHT30;53444;45.822;16.092;2023-06-01T06:35:12;17.94;94.08
66586;SHT30;53444;45.822;16.092;2023-06-01T06:37:39;17.96;93.47
66586;SHT30;53444;45.822;16.092;2023-06-01T06:40:09;18.06;93.78
66586;SHT30;53444;45.822;16.092;2023-06-01T06:42:36;18.06;93.91
66586;SHT30;53444;45.822;16.092;2023-06-01T06:45:03;18.21;93.17
66586;SHT30;53444;45.822;16.092;2023-06-01T06:47:30;18.36;92.88
66586;SHT30;53444;45.822;16.092;2023-06-01T06:49:57;18.37;93.49
66586;SHT30;53444;45.822;16.092;2023-06-01T06:52:23;18.72;92.48
66586;SHT30;53444;45.822;16.092;2023-06-01T06:54:50;18.85;91.36
66586;SHT30;53444;45.822;16.092;2023-06-01T06:57:18;19.19;90.81
66586;SHT30;53444;45.822;16.092;2023-06-01T06:59:45;19.30;91.80
66586;SHT30;53444;45.822;16.092;2023-06-01T07:02:11;19.39;89.60
66586;SHT30;53444;45.822;16.092;2023-06-01T07:04:38;19.12;91.09
66586;SHT30;53444;45.822;16.092;2023-06-01T07:07:05;18.60;91.63
66586;SHT30;53444;45.822;16.092;2023-06-01T07:09:31;18.68;91.41
66586;SHT30;53444;45.822;16.092;2023-06-01T07:11:58;18.95;91.47
66586;SHT30;53444;45.822;16.092;2023-06-01T07:14:26;19.33;91.17
66586;SHT30;53444;45.822;16.092;2023-06-01T07:16:52;19.02;91.45
66586;SHT30;53444;45.822;16.092;2023-06-01T07:19:19;18.91;92.13
66586;SHT30;53444;45.822;16.092;2023-06-01T07:21:46;19.08;91.37
66586;SHT30;53444;45.822;16.092;2023-06-01T07:24:12;19.36;90.33
66586;SHT30;53444;45.822;16.092;2023-06-01T07:26:39;19.33;89.62
66586;SHT30;53444;45.822;16.092;2023-06-01T07:29:06;19.60;88.31
66586;SHT30;53444;45.822;16.092;2023-06-01T07:31:33;19.95;88.23
66586;SHT30;53444;45.822;16.092;2023-06-01T07:34:01;20.39;88.07
66586;SHT30;53444;45.822;16.092;2023-06-01T07:36:27;20.51;86.57
66586;SHT30;53444;45.822;16.092;2023-06-01T07:38:58;20.76;87.20
66586;SHT30;53444;45.822;16.092;2023-06-01T07:41:25;21.00;85.64
66586;SHT30;53444;45.822;16.092;2023-06-01T07:43:52;21.23;84.97
66586;SHT30;53444;45.822;16.092;2023-06-01T07:46:19;21.03;84.83
66586;SHT30;53444;45.822;16.092;2023-06-01T07:48:48;20.77;85.30
66586;SHT30;53444;45.822;16.092;2023-06-01T07:51:15;21.03;83.48
66586;SHT30;53444;45.822;16.092;2023-06-01T07:53:42;21.03;83.61
66586;SHT30;53444;45.822;16.092;2023-06-01T07:56:09;21.19;83.64
66586;SHT30;53444;45.822;16.092;2023-06-01T07:58:36;21.27;84.34
66586;SHT30;53444;45.822;16.092;2023-06-01T08:01:03;21.43;84.10
66586;SHT30;53444;45.822;16.092;2023-06-01T08:03:30;21.64;83.34
66586;SHT30;53444;45.822;16.092;2023-06-01T08:06:00;21.77;82.48
66586;SHT30;53444;45.822;16.092;2023-06-01T08:08:27;21.89;82.48
66586;SHT30;53444;45.822;16.092;2023-06-01T08:10:54;21.84;81.98
66586;SHT30;53444;45.822;16.092;2023-06-01T08:13:21;21.91;82.23
66586;SHT30;53444;45.822;16.092;2023-06-01T08:15:48;22.02;81.47
66586;SHT30;53444;45.822;16.092;2023-06-01T08:18:15;21.91;81.14
66586;SHT30;53444;45.822;16.092;2023-06-01T08:20:41;22.01;80.96
66586;SHT30;53444;45.822;16.092;2023-06-01T08:23:10;22.23;80.05
66586;SHT30;53444;45.822;16.092;2023-06-01T08:25:37;22.04;78.03
66586;SHT30;53444;45.822;16.092;2023-06-01T08:28:04;21.68;79.04
66586;SHT30;53444;45.822;16.092;2023-06-01T08:30:30;21.79;79.47
66586;SHT30;53444;45.822;16.092;2023-06-01T08:32:57;21.94;79.64
66586;SHT30;53444;45.822;16.092;2023-06-01T08:35:24;21.89;77.62
66586;SHT30;53444;45.822;16.092;2023-06-01T08:37:51;21.64;77.65
66586;SHT30;53444;45.822;16.092;2023-06-01T08:40:18;21.50;77.72
66586;SHT30;53444;45.822;16.092;2023-06-01T08:42:49;22.02;78.40
66586;SHT30;53444;45.822;16.092;2023-06-01T08:45:19;22.50;79.60
66586;SHT30;53444;45.822;16.092;2023-06-01T08:47:48;22.74;77.61
66586;SHT30;53444;45.822;16.092;2023-06-01T08:50:15;22.97;75.99
66586;SHT30;53444;45.822;16.092;2023-06-01T08:52:43;22.97;75.51
66586;SHT30;53444;45.822;16.092;2023-06-01T08:55:13;23.15;74.60
66586;SHT30;53444;45.822;16.092;2023-06-01T08:57:41;23.20;74.85
66586;SHT30;53444;45.822;16.092;2023-06-01T09:00:11;23.25;74.52
66586;SHT30;53444;45.822;16.092;2023-06-01T09:02:38;23.51;73.23
66586;SHT30;53444;45.822;16.092;2023-06-01T09:05:05;23.24;73.36
66586;SHT30;53444;45.822;16.092;2023-06-01T09:07:32;23.01;73.80
66586;SHT30;53444;45.822;16.092;2023-06-01T09:09:59;23.38;74.64
66586;SHT30;53444;45.822;16.092;2023-06-01T09:12:27;23.66;73.53
66586;SHT30;53444;45.822;16.092;2023-06-01T09:15:09;23.96;72.73
66586;SHT30;53444;45.822;16.092;2023-06-01T09:17:36;24.05;71.46
66586;SHT30;53444;45.822;16.092;2023-06-01T09:20:03;24.32;71.79
66586;SHT30;53444;45.822;16.092;2023-06-01T09:22:41;23.86;70.32
66586;SHT30;53444;45.822;16.092;2023-06-01T09:25:08;23.98;69.87
66586;SHT30;53444;45.822;16.092;2023-06-01T09:27:43;24.20;70.85
66586;SHT30;53444;45.822;16.092;2023-06-01T09:30:12;24.47;70.96
66586;SHT30;53444;45.822;16.092;2023-06-01T09:32:39;24.77;69.53
66586;SHT30;53444;45.822;16.092;2023-06-01T09:35:07;25.10;68.64
66586;SHT30;53444;45.822;16.092;2023-06-01T09:37:34;25.19;67.65
66586;SHT30;53444;45.822;16.092;2023-06-01T09:40:01;24.71;67.14
66586;SHT30;53444;45.822;16.092;2023-06-01T09:42:32;24.33;68.63
66586;SHT30;53444;45.822;16.092;2023-06-01T09:45:16;24.78;68.00
66586;SHT30;53444;45.822;16.092;2023-06-01T09:47:43;24.78;68.13
66586;SHT30;53444;45.822;16.092;2023-06-01T09:50:10;25.26;66.18
66586;SHT30;53444;45.822;16.092;2023-06-01T09:52:37;25.31;67.66
66586;SHT30;53444;45.822;16.092;2023-06-01T09:55:08;25.39;67.06
66586;SHT30;53444;45.822;16.092;2023-06-01T09:57:35;25.46;66.75
66586;SHT30;53444;45.822;16.092;2023-06-01T10:00:02;25.36;66.61
66586;SHT30;53444;45.822;16.092;2023-06-01T10:02:32;25.50;66.74
66586;SHT30;53444;45.822;16.092;2023-06-01T10:04:59;25.55;66.90
66586;SHT30;53444;45.822;16.092;2023-06-01T10:07:28;25.58;67.70
66586;SHT30;53444;45.822;16.092;2023-06-01T10:09:56;26.07;65.17
66586;SHT30;53444;45.822;16.092;2023-06-01T10:12:24;25.93;64.35
66586;SHT30;53444;45.822;16.092;2023-06-01T10:14:51;26.13;65.77
66586;SHT30;53444;45.822;16.092;2023-06-01T10:17:19;26.01;64.83
66586;SHT30;53444;45.822;16.092;2023-06-01T10:19:47;26.33;63.48
66586;SHT30;53444;45.822;16.092;2023-06-01T10:22:16;26.64;62.99
66586;SHT30;53444;45.822;16.092;2023-06-01T10:24:43;26.67;62.69
66586;SHT30;53444;45.822;16.092;2023-06-01T10:27:15;27.03;63.36
66586;SHT30;53444;45.822;16.092;2023-06-01T10:29:43;27.15;60.88
66586;SHT30;53444;45.822;16.092;2023-06-01T10:38:29;27.22;55.64
66586;SHT30;53444;45.822;16.092;2023-06-01T10:41:26;27.80;54.46
66586;SHT30;53444;45.822;16.092;2023-06-01T10:43:54;27.66;57.62
66586;SHT30;53444;45.822;16.092;2023-06-01T10:46:40;27.71;56.71
66586;SHT30;53444;45.822;16.092;2023-06-01T10:49:07;28.21;58.33
66586;SHT30;53444;45.822;16.092;2023-06-01T10:51:35;28.24;56.41
66586;SHT30;53444;45.822;16.092;2023-06-01T10:54:27;28.83;56.88
66586;SHT30;53444;45.822;16.092;2023-06-01T10:57:18;28.78;55.98
66586;SHT30;53444;45.822;16.092;2023-06-01T11:00:13;28.79;54.46
66586;SHT30;53444;45.822;16.092;2023-06-01T11:02:45;29.13;55.63
66586;SHT30;53444;45.822;16.092;2023-06-01T11:05:36;29.06;54.41
66586;SHT30;53444;45.822;16.092;2023-06-01T11:08:05;28.24;52.86
66586;SHT30;53444;45.822;16.092;2023-06-01T11:10:57;28.73;52.48
66586;SHT30;53444;45.822;16.092;2023-06-01T11:13:26;28.58;53.35
66586;SHT30;53444;45.822;16.092;2023-06-01T11:16:29;28.96;51.98
66586;SHT30;53444;45.822;16.092;2023-06-01T11:18:57;28.93;53.23
66586;SHT30;53444;45.822;16.092;2023-06-01T11:21:28;29.30;53.11
66586;SHT30;53444;45.822;16.092;2023-06-01T11:23:57;29.31;52.60
66586;SHT30;53444;45.822;16.092;2023-06-01T11:26:31;29.58;51.17
66586;SHT30;53444;45.822;16.092;2023-06-01T11:29:09;29.11;50.56
66586;SHT30;53444;45.822;16.092;2023-06-01T11:31:38;28.86;50.66
66586;SHT30;53444;45.822;16.092;2023-06-01T11:34:06;29.48;50.17
66586;SHT30;53444;45.822;16.092;2023-06-01T11:36:37;29.21;52.17
66586;SHT30;53444;45.822;16.092;2023-06-01T11:39:15;29.64;48.74
66586;SHT30;53444;45.822;16.092;2023-06-01T11:41:42;29.68;49.37
66586;SHT30;53444;45.822;16.092;2023-06-01T11:44:09;29.93;48.50
66586;SHT30;53444;45.822;16.092;2023-06-01T11:46:36;30.22;49.79
66586;SHT30;53444;45.822;16.092;2023-06-01T11:49:04;30.09;49.08
66586;SHT30;53444;45.822;16.092;2023-06-01T11:51:35;30.47;49.13
66586;SHT30;53444;45.822;16.092;2023-06-01T11:54:03;30.05;47.25
66586;SHT30;53444;45.822;16.092;2023-06-01T11:56:32;30.15;50.72
66586;SHT30;53444;45.822;16.092;2023-06-01T11:59:01;30.49;50.27
66586;SHT30;53444;45.822;16.092;2023-06-01T12:01:29;29.68;52.19
66586;SHT30;53444;45.822;16.092;2023-06-01T12:03:56;29.74;49.73
66586;SHT30;53444;45.822;16.092;2023-06-01T12:06:24;28.83;51.57
66586;SHT30;53444;45.822;16.092;2023-06-01T12:08:52;28.78;53.63
66586;SHT30;53444;45.822;16.092;2023-06-01T12:11:20;29.33;53.63
66586;SHT30;53444;45.822;16.092;2023-06-01T12:13:49;30.08;51.95
66586;SHT30;53444;45.822;16.092;2023-06-01T12:16:16;30.60;51.13
66586;SHT30;53444;45.822;16.092;2023-06-01T12:18:43;30.77;51.31
66586;SHT30;53444;45.822;16.092;2023-06-01T12:21:10;30.39;48.86
66586;SHT30;53444;45.822;16.092;2023-06-01T12:23:37;30.97;50.75
66586;SHT30;53444;45.822;16.092;2023-06-01T12:26:04;31.35;49.06
66586;SHT30;53444;45.822;16.092;2023-06-01T12:28:47;30.29;49.26
66586;SHT30;53444;45.822;16.092;2023-06-01T12:31:15;30.05;49.03
66586;SHT30;53444;45.822;16.092;2023-06-01T12:33:43;29.67;50.96
66586;SHT30;53444;45.822;16.092;2023-06-01T12:36:12;28.99;51.16
66586;SHT30;53444;45.822;16.092;2023-06-01T12:38:53;28.44;53.31
66586;SHT30;53444;45.822;16.092;2023-06-01T12:41:20;29.30;51.42
66586;SHT30;53444;45.822;16.092;2023-06-01T12:43:48;29.64;51.32
66586;SHT30;53444;45.822;16.092;2023-06-01T12:46:19;29.48;51.39
66586;SHT30;53444;45.822;16.092;2023-06-01T12:48:46;29.75;50.97
66586;SHT30;53444;45.822;16.092;2023-06-01T12:51:13;30.57;49.11
66586;SHT30;53444;45.822;16.092;2023-06-01T12:53:41;30.87;50.01
66586;SHT30;53444;45.822;16.092;2023-06-01T12:56:08;31.72;46.73
66586;SHT30;53444;45.822;16.092;2023-06-01T12:58:35;31.72;47.18
66586;SHT30;53444;45.822;16.092;2023-06-01T13:01:02;32.01;47.57
66586;SHT30;53444;45.822;16.092;2023-06-01T13:03:30;31.62;47.56
66586;SHT30;53444;45.822;16.092;2023-06-01T13:05:57;30.80;48.84
66586;SHT30;53444;45.822;16.092;2023-06-01T13:08:25;29.77;51.50
66586;SHT30;53444;45.822;16.092;2023-06-01T13:10:52;29.53;52.30
66586;SHT30;53444;45.822;16.092;2023-06-01T13:13:19;28.95;53.14
66586;SHT30;53444;45.822;16.092;2023-06-01T13:15:45;28.99;53.28
66586;SHT30;53444;45.822;16.092;2023-06-01T13:18:12;28.62;54.16
66586;SHT30;53444;45.822;16.092;2023-06-01T13:20:41;28.27;54.41
66586;SHT30;53444;45.822;16.092;2023-06-01T13:23:07;28.17;53.81
66586;SHT30;53444;45.822;16.092;2023-06-01T13:25:35;28.48;53.49
66586;SHT30;53444;45.822;16.092;2023-06-01T13:28:02;28.65;53.20
66586;SHT30;53444;45.822;16.092;2023-06-01T13:30:29;28.51;54.16
66586;SHT30;53444;45.822;16.092;2023-06-01T13:32:56;28.04;54.12
66586;SHT30;53444;45.822;16.092;2023-06-01T13:35:22;27.83;54.46
66586;SHT30;53444;45.822;16.092;2023-06-01T13:37:51;27.70;54.45
66586;SHT30;53444;45.822;16.092;2023-06-01T13:40:17;27.71;54.89
66586;SHT30;53444;45.822;16.092;2023-06-01T13:42:48;27.27;55.34
66586;SHT30;53444;45.822;16.092;2023-06-01T13:45:15;27.42;55.17
66586;SHT30;53444;45.822;16.092;2023-06-01T13:47:42;27.40;55.05
66586;SHT30;53444;45.822;16.092;2023-06-01T13:50:09;28.02;55.05
66586;SHT30;53444;45.822;16.092;2023-06-01T13:52:37;28.02;53.90
66586;SHT30;53444;45.822;16.092;2023-06-01T13:55:06;28.12;53.43
66586;SHT30;53444;45.822;16.092;2023-06-01T13:57:33;29.23;52.13
66586;SHT30;53444;45.822;16.092;2023-06-01T13:59:59;30.26;50.72
66586;SHT30;53444;45.822;16.092;2023-06-01T14:02:26;30.97;47.30
66586;SHT30;53444;45.822;16.092;2023-06-01T14:04:53;31.57;46.75
66586;SHT30;53444;45.822;16.092;2023-06-01T14:07:19;31.88;45.40
66586;SHT30;53444;45.822;16.092;2023-06-01T14:09:46;31.49;46.88
66586;SHT30;53444;45.822;16.092;2023-06-01T14:12:14;30.52;48.14
66586;SHT30;53444;45.822;16.092;2023-06-01T14:14:41;31.61;47.88
66586;SHT30;53444;45.822;16.092;2023-06-01T14:17:07;31.51;46.01
66586;SHT30;53444;45.822;16.092;2023-06-01T14:19:34;30.33;49.20
66586;SHT30;53444;45.822;16.092;2023-06-01T14:22:00;29.72;51.69
66586;SHT30;53444;45.822;16.092;2023-06-01T14:24:27;29.35;51.74
66586;SHT30;53444;45.822;16.092;2023-06-01T14:26:54;28.59;53.95
66586;SHT30;53444;45.822;16.092;2023-06-01T14:29:22;28.53;54.09
66586;SHT30;53444;45.822;16.092;2023-06-01T14:31:48;28.25;53.57
66586;SHT30;53444;45.822;16.092;2023-06-01T14:34:15;28.12;54.64
66586;SHT30;53444;45.822;16.092;2023-06-01T14:36:41;27.83;54.32
66586;SHT30;53444;45.822;16.092;2023-06-01T14:39:08;27.68;54.86
66586;SHT30;53444;45.822;16.092;2023-06-01T14:41:34;27.66;54.42
66586;SHT30;53444;45.822;16.092;2023-06-01T14:44:01;27.77;54.06
66586;SHT30;53444;45.822;16.092;2023-06-01T14:46:29;27.56;54.97
66586;SHT30;53444;45.822;16.092;2023-06-01T14:48:55;27.35;55.41
66586;SHT30;53444;45.822;16.092;2023-06-01T14:51:23;27.22;55.32
66586;SHT30;53444;45.822;16.092;2023-06-01T14:53:49;27.23;54.45
66586;SHT30;53444;45.822;16.092;2023-06-01T14:56:16;27.12;54.78
66586;SHT30;53444;45.822;16.092;2023-06-01T14:58:43;27.22;55.13
66586;SHT30;53444;45.822;16.092;2023-06-01T15:01:09;27.17;55.45
66586;SHT30;53444;45.822;16.092;2023-06-01T15:03:37;27.12;56.56
66586;SHT30;53444;45.822;16.092;2023-06-01T15:06:04;26.99;58.97
66586;SHT30;53444;45.822;16.092;2023-06-01T15:08:32;26.65;59.80
66586;SHT30;53444;45.822;16.092;2023-06-01T15:10:58;26.78;59.95
66586;SHT30;53444;45.822;16.092;2023-06-01T15:13:25;26.69;59.90
66586;SHT30;53444;45.822;16.092;2023-06-01T15:15:51;26.67;60.88
66586;SHT30;53444;45.822;16.092;2023-06-01T15:18:18;26.76;60.17
66586;SHT30;53444;45.822;16.092;2023-06-01T15:20:47;26.58;60.00
66586;SHT30;53444;45.822;16.092;2023-06-01T15:23:17;26.57;60.72
66586;SHT30;53444;45.822;16.092;2023-06-01T15:25:43;26.52;61.03
66586;SHT30;53444;45.822;16.092;2023-06-01T15:28:10;26.99;59.93